CW4743 Weather Reports


Display with metric or nautical units.
time (UTC)temp
F
wind
direction
speed
MPH
gust
MPH
rain 1hr
in
rain 24hr
in
rain mn
in
humidity
%
barometer
mb
20221130210059 52 254 1.0 0.0 0.00 0.00 0.00 22 1016.7
20221130204606 50 271 1.0 0.0 0.00 0.00 0.00 23 1016.7
20221130203102 49 237 1.0 0.0 0.00 0.00 0.00 24 1017.2
20221130201544 48 221 2.0 0.0 0.00 0.00 0.00 25 1017.5
20221130200037 49 242 1.0 0.0 0.00 0.00 0.00 23 1017.3
20221130194536 48 255 1.0 0.0 0.00 0.00 0.00 24 1017.5
20221130193028 47 248 1.0 0.0 0.00 0.00 0.00 23 1018.4
20221130191528 47 288 1.0 0.0 0.00 0.00 0.00 23 1018.6
20221130190016 45 238 1.0 0.0 0.00 0.00 0.00 26 1019.2
20221130184514 44 246 1.0 0.0 0.00 0.00 0.00 25 1020.3
20221130183013 42 139 1.0 0.0 0.00 0.00 0.00 26 1021.1
20221130181512 41 270 1.0 0.0 0.00 0.00 0.00 28 1020.6
20221130180001 40 245 2.0 0.0 0.00 0.00 0.00 28 1020.8
20221130174603 41 240 1.0 0.0 0.00 0.00 0.00 29 1020.8
20221130173100 39 231 2.0 0.0 0.00 0.00 0.00 29 1021.3
20221130171551 39 262 1.0 0.0 0.00 0.00 0.00 30 1021.2
20221130170054 38 269 1.0 0.0 0.00 0.00 0.00 32 1021.4
20221130164544 36 229 1.0 0.0 0.00 0.00 0.00 34 1021.7
20221130163036 36 242 0.0 0.0 0.00 0.00 0.00 35 1021.4
20221130161536 34 234 0.0 0.0 0.00 0.00 0.00 38 1022.0
20221130160029 33 234 0.0 0.0 0.00 0.00 0.00 38 1022.3
20221130154525 32 229 0.0 0.0 0.00 0.00 0.00 38 1022.2
20221130153021 30 27 0.0 0.0 0.00 0.00 0.00 42 1022.7
20221130151516 29 232 0.0 0.0 0.00 0.00 0.00 43 1023.5
20221130150007 26 126 0.0 0.0 0.00 0.00 0.00 47 1023.3
20221130144502 26 120 0.0 0.0 0.00 0.00 0.00 46 1023.2
20221130143115 27 124 0.0 0.0 0.00 0.00 0.00 45 1023.2
20221130141556 26 136 0.0 0.0 0.00 0.00 0.00 46 1023.2
20221130140050 26 136 0.0 0.0 0.00 0.00 0.00 46 1022.2
20221130134545 27 136 0.0 0.0 0.00 0.00 0.00 44 1022.0
20221130133036 28 136 0.0 0.0 0.00 0.00 0.00 42 1021.3
20221130131528 28 96 0.0 0.0 0.00 0.00 0.00 42 1021.4
20221130130028 26 135 0.0 0.0 0.00 0.00 0.00 45 1021.4
20221130124526 26 135 0.0 0.0 0.00 0.00 0.00 45 1021.6
20221130123012 26 135 0.0 0.0 0.00 0.00 0.00 45 1021.5
20221130121506 25 136 0.0 0.0 0.00 0.00 0.00 47 1021.4
20221130120109 25 136 0.0 0.0 0.00 0.00 0.00 48 1021.4
20221130114557 26 136 0.0 0.0 0.00 0.00 0.00 45 1021.0
20221130113051 26 136 0.0 0.0 0.00 0.00 0.00 45 1020.9
20221130111546 26 136 0.0 0.0 0.00 0.00 0.00 45 1021.0
20221130110041 26 136 0.0 0.0 0.00 0.00 0.00 45 1020.1
20221130104531 27 136 0.0 0.0 0.00 0.00 0.00 44 1019.5
20221130103037 27 122 0.0 0.0 0.00 0.00 0.00 44 1019.5
20221130101520 29 69 0.0 0.0 0.00 0.00 0.00 41 1019.1
20221130100016 27 76 0.0 0.0 0.00 0.00 0.00 43 1018.6
20221130094512 29 74 0.0 0.0 0.00 0.00 0.00 41 1018.6
20221130093000 29 65 0.0 0.0 0.00 0.00 0.00 41 1018.5
20221130091607 28 63 0.0 0.0 0.00 0.00 0.00 43 1018.5
20221130090112 27 82 0.0 0.0 0.00 0.00 0.00 45 1018.2
20221130084549 27 141 0.0 0.0 0.00 0.00 0.00 44 1017.6
20221130083043 28 141 0.0 0.0 0.00 0.00 0.00 44 1017.4
20221130081538 28 141 0.0 0.0 0.00 0.00 0.00 43 1017.4
20221130080035 28 140 0.0 0.0 0.00 0.00 0.00 42 1017.2
20221130074532 29 140 0.0 0.0 0.00 0.00 0.00 42 1017.2
20221130073026 29 139 0.0 0.0 0.00 0.00 0.00 42 1016.5
20221130071516 30 130 0.0 0.0 0.00 0.00 0.00 40 1016.3
20221130070011 32 114 0.0 0.0 0.00 0.00 0.00 37 1016.0
20221130064505 33 357 0.0 0.0 0.00 0.00 0.00 35 1015.5
20221130063105 34 358 0.0 0.0 0.00 0.00 0.00 34 1015.5
20221130061601 35 61 2.0 0.0 0.00 0.00 0.00 33 1015.5
20221130060056 35 321 2.0 0.0 0.00 0.00 0.00 33 1016.0
20221130054606 35 335 1.0 0.0 0.00 0.00 0.00 35 1016.1
20221130053058 35 8 1.0 0.0 0.00 0.00 0.00 34 1016.0
20221130051546 35 11 2.0 0.0 0.00 0.00 0.00 35 1016.0
20221130050044 34 354 3.0 0.0 0.00 0.00 0.00 36 1016.8
20221130044543 36 26 4.0 0.0 0.00 0.00 0.00 33 1016.1
20221130043039 36 31 3.0 0.0 0.00 0.00 0.00 32 1016.0
20221130041539 37 13 7.0 0.0 0.00 0.00 0.00 31 1015.3
20221130040032 37 0 6.0 0.0 0.00 0.00 0.00 32 1016.2
20221130034514 37 26 5.0 0.0 0.00 0.00 0.00 32 1015.1
20221130033008 37 11 5.0 0.0 0.00 0.00 0.00 33 1015.1
20221130031506 37 20 5.0 0.0 0.00 0.00 0.00 32 1016.1
20221130030105 38 7 4.0 0.0 0.00 0.00 0.00 32 1016.1
20221130024605 38 31 5.0 0.0 0.00 0.00 0.00 32 1015.8
20221130023048 38 20 7.0 0.0 0.00 0.00 0.00 32 1015.6
20221130021544 38 23 8.0 0.0 0.00 0.00 0.00 32 1015.2
20221130020038 39 38 9.0 0.0 0.00 0.00 0.00 32 1015.3
20221130014533 39 31 9.0 0.0 0.00 0.00 0.00 32 1014.9
20221130013033 39 58 10.0 0.0 0.00 0.00 0.00 32 1014.4
20221130011523 39 25 7.0 0.0 0.00 0.00 0.00 33 1014.4
20221130010013 40 27 7.0 0.0 0.00 0.00 0.00 33 1013.2
20221130004510 40 21 5.0 0.0 0.00 0.00 0.00 33 1012.8
20221130003124 41 32 6.0 0.0 0.00 0.00 0.00 33 1012.8
20221130001607 41 20 8.0 0.0 0.00 0.00 0.00 33 1012.3
20221130000053 42 34 8.0 0.0 0.00 0.00 0.00 32 1012.0
20221129234608 43 21 8.0 0.0 0.00 0.00 0.00 32 1011.4
20221129233047 43 60 9.0 0.0 0.00 0.00 0.00 31 1010.7
20221129231539 44 33 9.0 0.0 0.00 0.00 0.00 30 1010.4
20221129230034 45 29 6.0 0.0 0.00 0.00 0.00 30 1009.5
20221129224530 45 40 10.0 0.0 0.00 0.00 0.00 30 1009.1
20221129223028 46 12 11.0 0.0 0.00 0.00 0.00 29 1008.6
20221129221525 47 32 10.0 0.0 0.00 0.00 0.00 28 1008.6
20221129220024 47 39 9.0 0.0 0.00 0.00 0.00 28 1007.6
20221129214527 47 6 10.0 0.0 0.00 0.00 0.00 28 1007.4
20221129213042 48 25 8.0 0.0 0.00 0.00 0.00 28 1007.0